Aérodrome :
LOGIN :

S'inscrire | Disclaimer

   EN    FR    IT 

 










Légende :    VFR   VFR Marginal   IFR   IFR Intensif   IFR Très Intensif
Visi : 
Plafond : 
>= 8 km
>= 3000ft
5 à 8 km
1000 à 3000 ft
1500m à 5 km
500 à 1000 ft
800 à 1500m
200 à 500 ft
< 800m
< 200 ft
Symboles :   Orages  Brouillard  Fortes neiges  Fortes précipitations  Vent > 20 kt
SIGMETs :   Divers  Orages  Givrage  Turbulence  Onde Orograph.  Cendres Volcan.







- Altitude de l'aérodrome : 1234 ft
- Code IATA : LUX


ELLX - Luxembourg Findel

DERNIER METAR :
  • 232220Z 14004KT CAVOK 15/08 Q0999 NOSIG

METARs EXPIRÉS :
  • 232150Z 11004KT CAVOK 14/07 Q0999 NOSIG
  • 232120Z 10004KT CAVOK 15/08 Q0999 NOSIG
  • 232050Z 12004KT CAVOK 15/08 Q0999 NOSIG
  • 232020Z 10005KT 080V140 CAVOK 15/08 Q0998 NOSIG
  • 231950Z 10007KT CAVOK 16/08 Q0998 NOSIG

TAF TAF ELLX
Valide du 23 à 18h jusqu'au 25 à 00h UTC


231700Z 2318/2424 14007KT CAVOK
BECMG 2406/2409 19012KT
BECMG 2409/2412 SCT040TCU
TEMPO 2412/2418 21015G25KT SHRA SCT020 BKN040CB
PROB40
TEMPO 2412/2418 21025G35KT 3000 TSRAGR SCT010 BKN020CB
BECMG 2420/2423 14007KT
ATIS : +352 4798 27300
Météo : +352 4798 27010 / 27050
Pas de NOTAMs connus pour ce terrain.



MET'MAP, la Météo Aéronautique d'un coup d'oeil ! - Copyright ORBIFLY Décembre 2007 - Disclaimer

ORBIFLY MET'MAP TEAM :

Programmation & Développement : Alexandra Zaïnal
Conception & Développement : Baudouin d'Aumeries
Co-Programmation & Développement : Marc-Olivier Méhu
Soutien technique & logistique : Manuel Goepfert

Contact : metmap@orbifly.com




SOURCES & CREDITS :

   NOAA